Time;durP1;ratioP1;P1;durP2;ratioP2;P2;SDS_P1;SDS_P2;PMS_P1;PMS_P2;Temp;Humidity;BMP_temperature;BMP_pressure;BME280_temperature;BME280_humidity;BME280_pressure;Samples;Min_cycle;Max_cycle;Signal;HPM_P1;HPM_P2
2022/03/29 00:01:59;;;;;;;44.53;20.23;;;;;;;;;;4919841;29;20052;-78
2022/03/29 00:04:26;;;;;;;47.17;19.60;;;;;;;;;;4919221;29;20473;-67
2022/03/29 00:06:53;;;;;;;44.13;20.88;;;;;;;;;;4924063;29;20139;-74
2022/03/29 00:09:18;;;;;;;38.15;19.83;;;;;;;;;;4923494;29;20530;-65
2022/03/29 00:11:44;;;;;;;51.30;21.13;;;;;;;;;;4923790;29;20082;-66
2022/03/29 00:14:12;;;;;;;41.38;21.50;;;;;;;;;;4920208;29;20492;-75
2022/03/29 00:16:39;;;;;;;44.47;22.10;;;;;;;;;;4922527;29;20079;-73
2022/03/29 00:19:05;;;;;;;46.92;21.90;;;;;;;;;;4907309;29;20044;-69
2022/03/29 00:21:32;;;;;;;46.00;22.20;;;;;;;;;;4925889;29;20383;-70
2022/03/29 00:23:58;;;;;;;40.72;21.08;;;;;;;;;;4921778;29;20122;-72
2022/03/29 00:26:23;;;;;;;41.58;22.45;;;;;;;;;;4922004;29;20056;-73
2022/03/29 00:28:49;;;;;;;41.72;20.40;;;;;;;;;;4922539;29;20438;-73
2022/03/29 00:31:22;;;;;;;37.95;20.20;;;;;;;;;;4924256;29;20058;-67
2022/03/29 00:33:49;;;;;;;37.72;20.17;;;;;;;;;;4919870;29;20182;-73
2022/03/29 00:36:16;;;;;;;41.30;19.52;;;;;;;;;;4923395;29;20048;-74
2022/03/29 00:38:43;;;;;;;37.80;18.67;;;;;;;;;;4921813;29;20063;-69
2022/03/29 00:41:09;;;;;;;37.42;18.27;;;;;;;;;;4922967;29;20510;-70
2022/03/29 00:43:36;;;;;;;34.28;17.33;;;;;;;;;;4921194;29;20186;-75
2022/03/29 00:46:03;;;;;;;27.15;15.68;;;;;;;;;;4922780;29;20191;-72
2022/03/29 00:48:30;;;;;;;34.33;15.88;;;;;;;;;;4923401;29;20378;-69
2022/03/29 00:50:56;;;;;;;41.63;16.05;;;;;;;;;;4920819;29;20067;-67
2022/03/29 00:53:23;;;;;;;32.65;16.52;;;;;;;;;;4921140;29;20059;-73
2022/03/29 00:55:50;;;;;;;33.17;16.13;;;;;;;;;;4921840;29;20587;-70
2022/03/29 00:58:17;;;;;;;25.45;16.15;;;;;;;;;;4923422;29;20373;-74
2022/03/29 01:00:44;;;;;;;40.15;17.10;;;;;;;;;;4923074;29;20059;-69
2022/03/29 01:03:11;;;;;;;34.20;16.65;;;;;;;;;;4921199;29;20110;-69
2022/03/29 01:05:37;;;;;;;32.05;16.27;;;;;;;;;;4920541;29;20048;-70
2022/03/29 01:08:05;;;;;;;36.63;16.23;;;;;;;;;;4924021;29;20047;-73
2022/03/29 01:10:31;;;;;;;41.63;17.90;;;;;;;;;;4922432;29;20055;-68
2022/03/29 01:12:57;;;;;;;41.08;17.33;;;;;;;;;;4922910;29;20063;-69
2022/03/29 01:15:27;;;;;;;36.17;17.50;;;;;;;;;;4921798;29;20055;-66
2022/03/29 01:17:54;;;;;;;33.20;17.48;;;;;;;;;;4918637;29;20059;-72
2022/03/29 01:20:25;;;;;;;33.17;16.80;;;;;;;;;;4921314;29;20070;-68
2022/03/29 01:22:52;;;;;;;43.08;17.75;;;;;;;;;;4905326;29;20060;-67
2022/03/29 01:25:26;;;;;;;38.90;17.38;;;;;;;;;;4920608;29;20091;-68
2022/03/29 01:27:53;;;;;;;36.92;17.55;;;;;;;;;;4922737;29;21018;-69
2022/03/29 01:30:21;;;;;;;32.60;17.13;;;;;;;;;;4919951;29;20068;-67
2022/03/29 01:32:50;;;;;;;34.53;17.98;;;;;;;;;;4922945;29;20043;-72
2022/03/29 01:35:17;;;;;;;43.92;17.50;;;;;;;;;;4918730;29;20047;-66
2022/03/29 01:37:43;;;;;;;42.42;16.95;;;;;;;;;;4920611;29;20431;-67
2022/03/29 01:40:12;;;;;;;35.85;16.75;;;;;;;;;;4921264;29;20191;-74
2022/03/29 01:42:41;;;;;;;43.17;18.08;;;;;;;;;;4919620;29;20052;-77
2022/03/29 01:45:07;;;;;;;34.90;17.42;;;;;;;;;;4920326;29;20043;-75
2022/03/29 01:47:33;;;;;;;29.23;16.70;;;;;;;;;;4923199;29;20062;-69
2022/03/29 01:49:59;;;;;;;32.85;16.08;;;;;;;;;;4923717;29;20055;-68
2022/03/29 01:52:25;;;;;;;36.25;15.20;;;;;;;;;;4917302;29;20052;-66
2022/03/29 01:54:51;;;;;;;35.92;16.77;;;;;;;;;;4920098;29;20134;-75
2022/03/29 01:57:17;;;;;;;34.03;15.57;;;;;;;;;;4921630;29;20134;-68
2022/03/29 02:02:29;;;;;;;33.28;15.00;;;;;;;;;;4922163;29;20068;-67
2022/03/29 02:04:55;;;;;;;31.30;14.80;;;;;;;;;;4919777;29;20142;-65
2022/03/29 02:07:23;;;;;;;28.98;14.45;;;;;;;;;;4923867;29;20343;-71
2022/03/29 02:09:49;;;;;;;33.88;15.15;;;;;;;;;;4917989;29;20055;-69
2022/03/29 02:12:14;;;;;;;35.38;14.05;;;;;;;;;;4922346;29;20092;-74
2022/03/29 02:14:40;;;;;;;37.92;13.93;;;;;;;;;;4917124;29;20056;-71
2022/03/29 02:17:06;;;;;;;41.10;14.57;;;;;;;;;;4922731;29;20046;-73
2022/03/29 02:19:32;;;;;;;30.02;13.93;;;;;;;;;;4921102;29;20055;-74
2022/03/29 02:21:58;;;;;;;31.90;13.60;;;;;;;;;;4922055;29;20351;-78
2022/03/29 02:24:25;;;;;;;44.83;13.25;;;;;;;;;;4920197;29;20607;-69
2022/03/29 02:26:50;;;;;;;33.28;12.95;;;;;;;;;;4921214;29;20064;-67
2022/03/29 02:29:16;;;;;;;40.13;12.68;;;;;;;;;;4925377;29;20058;-70
2022/03/29 02:31:42;;;;;;;35.88;12.00;;;;;;;;;;4925692;29;20051;-72
2022/03/29 02:34:08;;;;;;;34.58;13.00;;;;;;;;;;4920004;29;20047;-70
2022/03/29 02:36:34;;;;;;;39.33;13.57;;;;;;;;;;4927107;29;20480;-67
2022/03/29 02:38:59;;;;;;;40.75;12.50;;;;;;;;;;4920977;29;20526;-73
2022/03/29 02:41:25;;;;;;;37.08;12.30;;;;;;;;;;4923438;29;20067;-70
2022/03/29 02:43:51;;;;;;;32.72;12.50;;;;;;;;;;4919621;29;20373;-66
2022/03/29 02:46:17;;;;;;;37.22;12.63;;;;;;;;;;4924081;29;20052;-73
2022/03/29 02:48:43;;;;;;;36.13;11.35;;;;;;;;;;4926043;29;20048;-71
2022/03/29 02:51:08;;;;;;;34.90;11.82;;;;;;;;;;4922927;29;20063;-67
2022/03/29 02:53:35;;;;;;;25.83;11.77;;;;;;;;;;4922797;29;20193;-71
2022/03/29 02:56:00;;;;;;;42.38;11.52;;;;;;;;;;4925919;29;20527;-70
2022/03/29 02:58:26;;;;;;;29.48;13.10;;;;;;;;;;4910073;29;20603;-70
2022/03/29 03:00:52;;;;;;;29.15;13.43;;;;;;;;;;4922372;29;20143;-67
2022/03/29 03:03:19;;;;;;;42.08;12.63;;;;;;;;;;4920962;29;20480;-73
2022/03/29 03:05:44;;;;;;;38.95;13.27;;;;;;;;;;4924862;29;20529;-65
2022/03/29 03:08:10;;;;;;;48.30;12.88;;;;;;;;;;4925945;29;20070;-71
2022/03/29 03:10:36;;;;;;;38.60;11.80;;;;;;;;;;4925125;29;20052;-66
2022/03/29 03:13:02;;;;;;;40.78;10.45;;;;;;;;;;4924574;29;20238;-71
2022/03/29 03:15:29;;;;;;;33.97;10.35;;;;;;;;;;4920697;29;20409;-66
2022/03/29 03:17:55;;;;;;;37.92;9.88;;;;;;;;;;4925510;29;20060;-65
2022/03/29 03:20:22;;;;;;;35.67;9.95;;;;;;;;;;4924915;29;20564;-74
2022/03/29 03:22:49;;;;;;;36.40;10.35;;;;;;;;;;4924989;29;20055;-68
2022/03/29 03:25:14;;;;;;;35.28;10.38;;;;;;;;;;4925086;29;20087;-71
2022/03/29 03:27:40;;;;;;;42.50;10.70;;;;;;;;;;4922372;29;20075;-75
2022/03/29 03:30:11;;;;;;;33.90;10.18;;;;;;;;;;4921763;29;20765;-67
2022/03/29 03:32:38;;;;;;;34.00;9.65;;;;;;;;;;4922304;29;20079;-73
2022/03/29 03:35:05;;;;;;;33.92;9.98;;;;;;;;;;4923392;29;20562;-68
2022/03/29 03:37:30;;;;;;;31.90;9.32;;;;;;;;;;4924691;29;20059;-77
2022/03/29 03:39:56;;;;;;;31.60;9.35;;;;;;;;;;4922515;29;20292;-70
2022/03/29 03:42:22;;;;;;;28.15;9.18;;;;;;;;;;4925728;29;20111;-73
2022/03/29 03:44:48;;;;;;;28.85;10.27;;;;;;;;;;4924430;29;20474;-67
2022/03/29 03:47:14;;;;;;;37.88;10.10;;;;;;;;;;4924620;29;20459;-68
2022/03/29 03:49:40;;;;;;;34.45;9.18;;;;;;;;;;4921742;29;20141;-71
2022/03/29 03:52:07;;;;;;;27.60;9.55;;;;;;;;;;4919687;29;20047;-73
2022/03/29 03:54:36;;;;;;;38.97;9.93;;;;;;;;;;4923826;29;20047;-73
2022/03/29 03:57:04;;;;;;;34.42;10.32;;;;;;;;;;4924034;29;20070;-71
2022/03/29 03:59:29;;;;;;;32.45;9.90;;;;;;;;;;4923482;29;20133;-68
2022/03/29 04:01:55;;;;;;;28.15;9.73;;;;;;;;;;4919986;29;20150;-71
2022/03/29 04:04:21;;;;;;;28.35;9.80;;;;;;;;;;4920217;29;20063;-68
2022/03/29 04:06:47;;;;;;;35.15;10.15;;;;;;;;;;4924030;29;20044;-66
2022/03/29 04:09:13;;;;;;;32.22;9.73;;;;;;;;;;4924302;29;20075;-75
2022/03/29 04:11:39;;;;;;;30.23;9.63;;;;;;;;;;4920697;29;20044;-74
2022/03/29 04:14:04;;;;;;;32.33;9.70;;;;;;;;;;4923056;29;20407;-75
2022/03/29 04:16:30;;;;;;;40.97;9.90;;;;;;;;;;4921367;29;20058;-75
2022/03/29 04:18:57;;;;;;;28.63;9.20;;;;;;;;;;4923144;29;20047;-75
2022/03/29 04:21:22;;;;;;;22.90;8.40;;;;;;;;;;4923490;29;20055;-68
2022/03/29 04:23:48;;;;;;;30.25;9.38;;;;;;;;;;4922365;29;20056;-66
2022/03/29 04:26:14;;;;;;;28.98;8.43;;;;;;;;;;4923108;29;20063;-69
2022/03/29 04:28:40;;;;;;;31.98;9.07;;;;;;;;;;4922451;29;20079;-74
2022/03/29 04:31:08;;;;;;;44.53;9.73;;;;;;;;;;4923748;29;20044;-75
2022/03/29 04:33:36;;;;;;;31.67;9.45;;;;;;;;;;4923436;29;20130;-69
2022/03/29 04:36:02;;;;;;;27.33;9.73;;;;;;;;;;4924615;29;20055;-70
2022/03/29 04:38:27;;;;;;;28.10;9.13;;;;;;;;;;4919487;29;20686;-74
2022/03/29 04:40:54;;;;;;;32.78;10.20;;;;;;;;;;4918810;29;20055;-73
2022/03/29 04:43:20;;;;;;;30.77;9.98;;;;;;;;;;4923320;29;20071;-67
2022/03/29 04:45:46;;;;;;;34.50;10.00;;;;;;;;;;4922903;29;20043;-68
2022/03/29 04:48:13;;;;;;;30.23;9.95;;;;;;;;;;4924653;29;20115;-66
2022/03/29 04:50:40;;;;;;;31.23;9.70;;;;;;;;;;4921934;29;20154;-74
2022/03/29 04:53:07;;;;;;;25.85;9.90;;;;;;;;;;4918572;29;20664;-70
2022/03/29 04:55:33;;;;;;;31.52;9.57;;;;;;;;;;4920351;29;20064;-72
2022/03/29 04:58:00;;;;;;;27.52;8.73;;;;;;;;;;4923416;29;20054;-71
2022/03/29 05:00:27;;;;;;;31.55;9.02;;;;;;;;;;4922243;29;20518;-72
2022/03/29 05:02:53;;;;;;;30.55;8.98;;;;;;;;;;4920954;29;20060;-71
2022/03/29 05:05:19;;;;;;;33.90;10.63;;;;;;;;;;4923075;29;20036;-71
2022/03/29 05:07:46;;;;;;;28.88;9.25;;;;;;;;;;4924325;29;20075;-75
2022/03/29 05:10:13;;;;;;;32.10;10.40;;;;;;;;;;4920848;29;20488;-69
2022/03/29 05:12:44;;;;;;;31.80;9.48;;;;;;;;;;4922685;29;20087;-74
2022/03/29 05:15:11;;;;;;;41.28;11.15;;;;;;;;;;4920625;29;20078;-67
2022/03/29 05:17:37;;;;;;;35.80;9.70;;;;;;;;;;4921931;29;20415;-69
2022/03/29 05:20:04;;;;;;;29.98;10.13;;;;;;;;;;4922906;29;20051;-68
2022/03/29 05:22:31;;;;;;;30.40;10.65;;;;;;;;;;4922728;29;20094;-72
2022/03/29 05:24:58;;;;;;;36.40;10.65;;;;;;;;;;4922434;29;20683;-66
2022/03/29 05:27:23;;;;;;;27.23;9.38;;;;;;;;;;4921646;29;20062;-67
2022/03/29 05:29:49;;;;;;;31.23;9.77;;;;;;;;;;4920439;29;20090;-66
2022/03/29 05:32:18;;;;;;;26.75;9.57;;;;;;;;;;4903922;29;20051;-66
2022/03/29 05:34:45;;;;;;;50.08;11.40;;;;;;;;;;4919269;29;20417;-74
2022/03/29 05:37:12;;;;;;;35.10;11.18;;;;;;;;;;4924779;29;20246;-75
2022/03/29 05:39:40;;;;;;;34.92;10.38;;;;;;;;;;4920748;29;20062;-75
2022/03/29 05:42:06;;;;;;;39.42;9.35;;;;;;;;;;4923949;29;20055;-67
2022/03/29 05:44:32;;;;;;;35.58;10.68;;;;;;;;;;4922406;29;20051;-72
2022/03/29 05:49:42;;;;;;;33.30;10.13;;;;;;;;;;4919993;29;20088;-70
2022/03/29 05:52:08;;;;;;;28.42;9.43;;;;;;;;;;4919225;29;20047;-69
2022/03/29 05:54:35;;;;;;;34.97;10.57;;;;;;;;;;4918653;29;20059;-71
2022/03/29 05:57:01;;;;;;;34.22;9.90;;;;;;;;;;4923492;29;20047;-67
2022/03/29 05:59:27;;;;;;;32.25;9.55;;;;;;;;;;4921878;29;20055;-68
2022/03/29 06:01:53;;;;;;;31.17;9.40;;;;;;;;;;4922699;29;20142;-74
2022/03/29 06:04:22;;;;;;;27.35;9.98;;;;;;;;;;4922427;29;20425;-73
2022/03/29 06:06:49;;;;;;;37.50;11.38;;;;;;;;;;4924587;29;20130;-68
2022/03/29 06:09:15;;;;;;;33.47;10.77;;;;;;;;;;4923078;29;20043;-69
2022/03/29 06:11:41;;;;;;;32.15;10.02;;;;;;;;;;4922249;29;20457;-68
2022/03/29 06:14:07;;;;;;;37.55;10.93;;;;;;;;;;4921841;29;20048;-75
2022/03/29 06:16:32;;;;;;;46.53;10.48;;;;;;;;;;4922399;29;20055;-69
2022/03/29 06:18:58;;;;;;;34.60;9.93;;;;;;;;;;4923427;29;21309;-71
2022/03/29 06:21:24;;;;;;;33.88;10.40;;;;;;;;;;4919995;29;20085;-73
2022/03/29 06:23:51;;;;;;;39.83;10.73;;;;;;;;;;4921549;29;20056;-66
2022/03/29 06:26:18;;;;;;;32.45;9.57;;;;;;;;;;4918601;29;20078;-70
2022/03/29 06:28:44;;;;;;;37.58;9.77;;;;;;;;;;4914410;29;20064;-77
2022/03/29 06:31:10;;;;;;;44.67;11.07;;;;;;;;;;4919349;29;20119;-70
2022/03/29 06:33:36;;;;;;;27.40;9.98;;;;;;;;;;4919839;29;20115;-72
2022/03/29 06:36:02;;;;;;;29.60;10.70;;;;;;;;;;4921849;29;20558;-81
2022/03/29 06:38:31;;;;;;;36.13;9.98;;;;;;;;;;4921695;29;20066;-79
2022/03/29 06:40:59;;;;;;;33.45;10.60;;;;;;;;;;4918731;29;20056;-64
2022/03/29 06:43:25;;;;;;;40.38;10.82;;;;;;;;;;4925888;29;20044;-64
2022/03/29 06:45:51;;;;;;;34.95;11.60;;;;;;;;;;4927636;29;20044;-65
2022/03/29 06:48:17;;;;;;;33.00;9.77;;;;;;;;;;4924889;29;20056;-72
2022/03/29 06:50:44;;;;;;;38.88;11.10;;;;;;;;;;4926415;29;20048;-72
2022/03/29 06:53:10;;;;;;;36.72;10.65;;;;;;;;;;4927739;29;20065;-68
2022/03/29 06:55:36;;;;;;;34.85;10.32;;;;;;;;;;4917590;29;20052;-70
2022/03/29 06:58:03;;;;;;;38.42;10.85;;;;;;;;;;4912485;29;20055;-67
2022/03/29 07:00:29;;;;;;;34.15;10.45;;;;;;;;;;4927309;29;20071;-75
2022/03/29 07:02:55;;;;;;;34.33;10.70;;;;;;;;;;4929597;29;20055;-77
2022/03/29 07:05:20;;;;;;;30.85;9.88;;;;;;;;;;4929035;29;20048;-75
2022/03/29 07:07:46;;;;;;;34.45;9.95;;;;;;;;;;4929790;29;20052;-68
2022/03/29 07:13:00;;;;;;;40.72;10.77;;;;;;;;;;4923490;29;20450;-70
2022/03/29 07:15:27;;;;;;;37.38;10.60;;;;;;;;;;4930000;29;20056;-68
2022/03/29 07:17:54;;;;;;;33.28;9.45;;;;;;;;;;4915410;29;20098;-77
2022/03/29 07:20:20;;;;;;;37.33;11.15;;;;;;;;;;4909636;29;20067;-72
2022/03/29 07:22:47;;;;;;;33.17;10.43;;;;;;;;;;4933133;29;20060;-67
2022/03/29 07:25:14;;;;;;;34.00;11.25;;;;;;;;;;4929890;29;20675;-68
2022/03/29 07:27:40;;;;;;;37.15;9.88;;;;;;;;;;4928060;29;20056;-69
2022/03/29 07:30:07;;;;;;;46.35;10.50;;;;;;;;;;4928076;29;20055;-71
2022/03/29 07:32:33;;;;;;;37.15;9.95;;;;;;;;;;4921408;29;20274;-69
2022/03/29 07:34:59;;;;;;;27.00;8.45;;;;;;;;;;4929803;29;20052;-77
2022/03/29 07:37:25;;;;;;;40.47;9.77;;;;;;;;;;4929645;29;20066;-69
2022/03/29 07:39:53;;;;;;;46.28;12.88;;;;;;;;;;4931165;29;20424;-71
2022/03/29 07:42:22;;;;;;;45.83;13.80;;;;;;;;;;4931618;29;20520;-70
2022/03/29 07:44:52;;;;;;;50.95;14.02;;;;;;;;;;4927771;29;20552;-70
2022/03/29 07:47:19;;;;;;;41.45;14.15;;;;;;;;;;4930707;29;20104;-77
2022/03/29 07:49:46;;;;;;;48.85;13.77;;;;;;;;;;4927324;29;20152;-70
2022/03/29 07:52:15;;;;;;;38.05;12.23;;;;;;;;;;4929664;29;20055;-74
2022/03/29 07:54:41;;;;;;;56.08;14.13;;;;;;;;;;4924148;29;20059;-69
2022/03/29 07:57:08;;;;;;;51.83;14.05;;;;;;;;;;4927903;29;20051;-71
2022/03/29 07:59:38;;;;;;;44.65;12.18;;;;;;;;;;4923818;29;20052;-71
2022/03/29 08:02:07;;;;;;;46.65;12.55;;;;;;;;;;4931242;29;20059;-69
2022/03/29 08:04:33;;;;;;;47.90;12.43;;;;;;;;;;4925836;29;20058;-69
2022/03/29 08:07:00;;;;;;;41.20;11.63;;;;;;;;;;4918661;29;20052;-73
2022/03/29 08:09:27;;;;;;;48.65;12.80;;;;;;;;;;4931793;29;20055;-72
2022/03/29 08:11:55;;;;;;;37.00;11.98;;;;;;;;;;4932546;29;20047;-68
2022/03/29 08:14:25;;;;;;;50.05;13.07;;;;;;;;;;4931378;29;20047;-73
2022/03/29 08:16:55;;;;;;;35.75;11.77;;;;;;;;;;4926150;29;20126;-67
2022/03/29 08:19:21;;;;;;;34.55;11.02;;;;;;;;;;4923098;29;20461;-72
2022/03/29 08:21:48;;;;;;;43.30;12.02;;;;;;;;;;4915113;29;20052;-72
2022/03/29 08:24:14;;;;;;;43.95;11.88;;;;;;;;;;4924513;29;20050;-70
2022/03/29 08:26:40;;;;;;;37.22;12.20;;;;;;;;;;4937145;28;20044;-76
2022/03/29 08:29:06;;;;;;;35.70;10.35;;;;;;;;;;4927020;29;20078;-69
2022/03/29 08:31:32;;;;;;;40.17;10.20;;;;;;;;;;4936912;29;20047;-73
2022/03/29 08:33:58;;;;;;;30.73;9.63;;;;;;;;;;4943650;29;20091;-68
2022/03/29 08:36:24;;;;;;;28.48;8.93;;;;;;;;;;4932332;29;20056;-77
2022/03/29 08:38:49;;;;;;;30.85;9.10;;;;;;;;;;4931577;29;20414;-78
2022/03/29 08:41:17;;;;;;;36.00;8.90;;;;;;;;;;4930805;29;20058;-79
2022/03/29 08:43:43;;;;;;;26.40;8.40;;;;;;;;;;4915150;29;20052;-75
2022/03/29 08:46:10;;;;;;;32.67;9.68;;;;;;;;;;4930515;29;20413;-69
2022/03/29 08:48:37;;;;;;;32.67;8.85;;;;;;;;;;4931498;29;20056;-72
2022/03/29 08:51:04;;;;;;;34.63;8.43;;;;;;;;;;4925189;29;20043;-78
2022/03/29 08:53:30;;;;;;;30.25;8.52;;;;;;;;;;4933166;29;20597;-73
2022/03/29 08:55:57;;;;;;;28.40;7.90;;;;;;;;;;4933679;29;20044;-67
2022/03/29 08:58:24;;;;;;;27.50;8.90;;;;;;;;;;4930222;29;20051;-71
2022/03/29 09:00:50;;;;;;;21.58;8.05;;;;;;;;;;4927953;29;20147;-74
2022/03/29 09:03:17;;;;;;;33.80;7.78;;;;;;;;;;4917891;29;20491;-70
2022/03/29 09:05:43;;;;;;;28.15;9.02;;;;;;;;;;4928168;29;20142;-71
2022/03/29 09:08:09;;;;;;;30.35;8.23;;;;;;;;;;4927903;29;20049;-72
2022/03/29 09:10:48;;;;;;;27.88;8.45;;;;;;;;;;4927803;29;20044;-70
2022/03/29 09:13:23;;;;;;;22.33;7.97;;;;;;;;;;4911761;29;20060;-70
2022/03/29 09:15:54;;;;;;;24.83;8.02;;;;;;;;;;4916944;29;20520;-70
2022/03/29 09:18:21;;;;;;;27.13;8.10;;;;;;;;;;4929085;29;20039;-71
2022/03/29 09:21:15;;;;;;;24.02;8.32;;;;;;;;;;4925049;29;20048;-69
2022/03/29 09:23:43;;;;;;;26.15;8.88;;;;;;;;;;4910311;29;20309;-70
2022/03/29 09:26:33;;;;;;;22.80;9.43;;;;;;;;;;4927047;29;20079;-71
2022/03/29 09:28:59;;;;;;;29.10;9.00;;;;;;;;;;4911123;29;20565;-75
2022/03/29 09:31:29;;;;;;;29.63;9.27;;;;;;;;;;4922441;29;20066;-69
2022/03/29 09:34:23;;;;;;;24.83;9.50;;;;;;;;;;4928298;29;20047;-69
2022/03/29 09:36:51;;;;;;;27.48;9.38;;;;;;;;;;4928878;29;20058;-72
2022/03/29 09:39:36;;;;;;;28.92;9.93;;;;;;;;;;4927163;29;20118;-71
2022/03/29 09:42:13;;;;;;;24.23;9.10;;;;;;;;;;4910848;29;20123;-70
2022/03/29 09:44:44;;;;;;;19.83;8.70;;;;;;;;;;4919808;29;20055;-70
2022/03/29 09:47:13;;;;;;;23.13;9.18;;;;;;;;;;4912297;29;20431;-73
2022/03/29 09:49:54;;;;;;;27.70;9.38;;;;;;;;;;4915260;29;20473;-73
2022/03/29 09:52:37;;;;;;;27.13;10.07;;;;;;;;;;4923201;29;20063;-78
2022/03/29 09:55:15;;;;;;;22.83;9.30;;;;;;;;;;4929321;29;20042;-76
2022/03/29 09:57:41;;;;;;;30.13;10.10;;;;;;;;;;4929854;29;20059;-70
2022/03/29 10:00:10;;;;;;;27.63;9.80;;;;;;;;;;4925693;29;20584;-75
2022/03/29 10:02:38;;;;;;;36.15;9.27;;;;;;;;;;4926393;29;20412;-69
2022/03/29 10:05:05;;;;;;;19.75;8.60;;;;;;;;;;4923408;29;20043;-72
2022/03/29 10:09:25;;;;;;;26.50;8.80;;;;;;;;;;4929862;29;20044;-73
2022/03/29 10:10:43;;;;;;;33.88;9.77;;;;;;;;;;4920516;29;20478;-75
2022/03/29 10:13:10;;;;;;;23.27;8.98;;;;;;;;;;4924742;29;20110;-72
2022/03/29 10:15:38;;;;;;;32.53;9.02;;;;;;;;;;4928249;29;20493;-69
2022/03/29 10:18:04;;;;;;;24.77;8.73;;;;;;;;;;4927780;29;20497;-72
2022/03/29 10:20:30;;;;;;;23.48;9.02;;;;;;;;;;4928543;29;20052;-68
2022/03/29 10:22:58;;;;;;;20.10;8.30;;;;;;;;;;4929661;29;20095;-68
2022/03/29 10:25:26;;;;;;;22.83;8.75;;;;;;;;;;4928571;29;20055;-70
2022/03/29 10:27:54;;;;;;;18.52;8.40;;;;;;;;;;4928600;29;20409;-77
2022/03/29 10:30:41;;;;;;;21.42;8.50;;;;;;;;;;4927795;29;20047;-73
2022/03/29 10:33:23;;;;;;;15.32;7.30;;;;;;;;;;4917334;29;20059;-79
2022/03/29 10:35:58;;;;;;;19.58;8.40;;;;;;;;;;4928473;29;20425;-67
2022/03/29 10:38:43;;;;;;;24.10;9.05;;;;;;;;;;4926416;29;20114;-77
2022/03/29 10:41:28;;;;;;;26.20;8.85;;;;;;;;;;4922294;29;20090;-70
2022/03/29 10:43:54;;;;;;;20.88;8.02;;;;;;;;;;4929538;29;20055;-70
2022/03/29 10:46:25;;;;;;;21.52;8.07;;;;;;;;;;4927682;29;20056;-73
2022/03/29 10:49:24;;;;;;;26.00;8.02;;;;;;;;;;4928200;29;20533;-78
2022/03/29 10:52:10;;;;;;;23.60;8.55;;;;;;;;;;4932218;29;20143;-72
2022/03/29 10:54:41;;;;;;;27.42;9.15;;;;;;;;;;4904678;29;20363;-75
2022/03/29 10:57:20;;;;;;;23.05;9.13;;;;;;;;;;4921155;29;20521;-74
2022/03/29 11:00:17;;;;;;;20.23;8.23;;;;;;;;;;4928281;29;20051;-71
2022/03/29 11:03:09;;;;;;;25.35;8.25;;;;;;;;;;4929479;29;20044;-74
2022/03/29 11:06:03;;;;;;;23.08;8.30;;;;;;;;;;4929729;29;20481;-69
2022/03/29 11:08:30;;;;;;;22.38;7.88;;;;;;;;;;4913690;29;20142;-70
2022/03/29 11:10:58;;;;;;;25.23;8.48;;;;;;;;;;4932617;29;20115;-76
2022/03/29 11:13:37;;;;;;;22.33;8.07;;;;;;;;;;4925403;29;20474;-70
2022/03/29 11:16:25;;;;;;;29.60;8.60;;;;;;;;;;4913389;29;20075;-70
2022/03/29 11:18:52;;;;;;;26.17;8.10;;;;;;;;;;4932313;29;20139;-77
2022/03/29 11:21:36;;;;;;;20.23;8.07;;;;;;;;;;4933018;29;20059;-72
2022/03/29 11:24:05;;;;;;;26.27;9.10;;;;;;;;;;4933524;29;20454;-70
2022/03/29 11:26:33;;;;;;;27.67;8.25;;;;;;;;;;4915692;29;20114;-71
2022/03/29 11:29:00;;;;;;;23.77;8.13;;;;;;;;;;4931313;29;20051;-76
2022/03/29 11:31:37;;;;;;;29.63;8.68;;;;;;;;;;4931727;29;20051;-72
2022/03/29 11:34:05;;;;;;;26.65;9.20;;;;;;;;;;4925548;29;20052;-71
2022/03/29 11:36:35;;;;;;;27.50;7.85;;;;;;;;;;4920362;29;20414;-77
2022/03/29 11:39:01;;;;;;;23.52;9.35;;;;;;;;;;4921648;29;20048;-71
2022/03/29 11:41:29;;;;;;;23.85;8.38;;;;;;;;;;4933450;29;20051;-70
2022/03/29 11:44:06;;;;;;;21.95;7.88;;;;;;;;;;4932595;29;20058;-70
2022/03/29 11:46:49;;;;;;;23.40;8.20;;;;;;;;;;4919733;29;20052;-70
2022/03/29 11:49:20;;;;;;;27.35;8.02;;;;;;;;;;4932713;29;20055;-74
2022/03/29 11:52:02;;;;;;;23.27;7.15;;;;;;;;;;4914678;29;20063;-78
2022/03/29 11:54:28;;;;;;;22.38;7.75;;;;;;;;;;4932019;29;20490;-74
2022/03/29 11:56:54;;;;;;;23.63;7.85;;;;;;;;;;4916871;29;20429;-74
2022/03/29 11:59:20;;;;;;;24.55;6.70;;;;;;;;;;4926459;29;20051;-74
2022/03/29 12:01:46;;;;;;;15.10;5.95;;;;;;;;;;4910948;29;20044;-76
2022/03/29 12:04:12;;;;;;;17.30;6.65;;;;;;;;;;4925222;29;20127;-73
2022/03/29 12:06:52;;;;;;;24.10;6.80;;;;;;;;;;4928215;29;20437;-71
2022/03/29 12:09:23;;;;;;;13.90;5.72;;;;;;;;;;4932225;29;20349;-77
2022/03/29 12:11:49;;;;;;;21.33;5.95;;;;;;;;;;4933248;29;20138;-71
2022/03/29 12:14:17;;;;;;;22.00;6.55;;;;;;;;;;4931463;29;20152;-70
2022/03/29 12:17:03;;;;;;;18.55;5.95;;;;;;;;;;4927372;29;20062;-72
2022/03/29 12:19:33;;;;;;;17.02;5.10;;;;;;;;;;4911728;29;20055;-78
2022/03/29 12:22:08;;;;;;;22.45;5.90;;;;;;;;;;4925631;29;20512;-74
2022/03/29 12:24:36;;;;;;;20.00;5.50;;;;;;;;;;4924635;29;20056;-72
2022/03/29 12:27:13;;;;;;;21.10;6.63;;;;;;;;;;4928981;29;20365;-72
2022/03/29 12:29:51;;;;;;;18.48;5.95;;;;;;;;;;4931907;29;20055;-69
2022/03/29 12:32:18;;;;;;;12.15;5.50;;;;;;;;;;4931700;29;20051;-73
2022/03/29 12:34:52;;;;;;;14.70;5.85;;;;;;;;;;4932657;29;20044;-74
2022/03/29 12:37:18;;;;;;;13.60;6.18;;;;;;;;;;4925417;29;20506;-78
2022/03/29 12:39:46;;;;;;;15.30;6.38;;;;;;;;;;4936969;29;20044;-71
2022/03/29 12:42:15;;;;;;;17.02;7.63;;;;;;;;;;4935267;29;20131;-72
2022/03/29 12:45:03;;;;;;;17.95;6.88;;;;;;;;;;4942297;29;20134;-80
2022/03/29 12:47:33;;;;;;;16.70;6.43;;;;;;;;;;4936070;29;20043;-70
2022/03/29 12:50:01;;;;;;;13.93;6.45;;;;;;;;;;4931015;29;20334;-72
2022/03/29 12:52:26;;;;;;;19.20;6.28;;;;;;;;;;4932419;29;20894;-78
2022/03/29 12:55:02;;;;;;;16.85;6.00;;;;;;;;;;4929383;29;20073;-70
2022/03/29 12:57:41;;;;;;;12.48;5.70;;;;;;;;;;4933615;29;20052;-74
2022/03/29 13:00:14;;;;;;;18.92;6.50;;;;;;;;;;4930166;29;20052;-71
2022/03/29 13:02:43;;;;;;;14.57;5.75;;;;;;;;;;4932827;29;20047;-78
2022/03/29 13:05:10;;;;;;;16.90;5.93;;;;;;;;;;4932150;29;20493;-72
2022/03/29 13:07:48;;;;;;;16.05;6.15;;;;;;;;;;4934876;29;20492;-71
2022/03/29 13:10:27;;;;;;;13.48;5.75;;;;;;;;;;4930730;29;20758;-70
2022/03/29 13:12:58;;;;;;;11.68;5.40;;;;;;;;;;4929512;29;20051;-69
2022/03/29 13:15:48;;;;;;;15.10;6.07;;;;;;;;;;4931277;29;20060;-70
2022/03/29 13:18:32;;;;;;;14.02;5.72;;;;;;;;;;4930995;29;20430;-73
2022/03/29 13:21:14;;;;;;;17.00;6.53;;;;;;;;;;4931879;29;20500;-79
2022/03/29 13:23:46;;;;;;;14.07;5.65;;;;;;;;;;4939913;29;20465;-77
2022/03/29 13:26:15;;;;;;;16.67;6.57;;;;;;;;;;4924104;29;20192;-81
2022/03/29 13:28:42;;;;;;;13.45;6.75;;;;;;;;;;4933280;29;20390;-71
2022/03/29 13:31:10;;;;;;;16.67;6.75;;;;;;;;;;4909149;29;20512;-70
2022/03/29 13:33:38;;;;;;;17.17;7.60;;;;;;;;;;4930867;29;20056;-69
2022/03/29 13:36:06;;;;;;;12.23;7.05;;;;;;;;;;4925296;29;20073;-70
2022/03/29 13:38:32;;;;;;;18.70;7.80;;;;;;;;;;4932034;29;20063;-71
2022/03/29 13:40:59;;;;;;;15.90;8.07;;;;;;;;;;4914319;29;20089;-69
2022/03/29 13:43:25;;;;;;;17.73;7.40;;;;;;;;;;4930062;29;20518;-71
2022/03/29 13:45:51;;;;;;;17.08;8.55;;;;;;;;;;4931220;29;20082;-70
2022/03/29 13:48:18;;;;;;;19.17;8.07;;;;;;;;;;4928280;29;20052;-76
2022/03/29 13:50:44;;;;;;;17.85;8.55;;;;;;;;;;4923207;29;20040;-71
2022/03/29 13:53:11;;;;;;;20.42;8.95;;;;;;;;;;4935088;29;20098;-70
2022/03/29 13:55:37;;;;;;;26.85;9.02;;;;;;;;;;4931247;29;20048;-73
2022/03/29 13:58:05;;;;;;;22.17;8.88;;;;;;;;;;4931903;29;20159;-72
2022/03/29 14:00:32;;;;;;;22.58;8.02;;;;;;;;;;4916576;29;20102;-78
2022/03/29 14:02:58;;;;;;;17.88;7.70;;;;;;;;;;4932958;29;20063;-71
2022/03/29 14:05:28;;;;;;;22.48;8.40;;;;;;;;;;4936162;29;20397;-71
2022/03/29 14:07:55;;;;;;;17.90;7.55;;;;;;;;;;4931561;29;20071;-69
2022/03/29 14:10:22;;;;;;;22.98;7.65;;;;;;;;;;4916699;29;20052;-74
2022/03/29 14:12:48;;;;;;;23.52;8.02;;;;;;;;;;4931970;29;20052;-77
2022/03/29 14:15:13;;;;;;;20.20;7.40;;;;;;;;;;4929955;29;20204;-73
2022/03/29 14:17:40;;;;;;;28.58;8.27;;;;;;;;;;4930823;29;20490;-70
2022/03/29 14:20:06;;;;;;;25.05;7.22;;;;;;;;;;4930454;29;20040;-69
2022/03/29 14:22:35;;;;;;;25.42;7.30;;;;;;;;;;4932823;29;20050;-71
2022/03/29 14:25:03;;;;;;;22.92;7.93;;;;;;;;;;4935739;29;20063;-69
2022/03/29 14:27:29;;;;;;;23.52;7.43;;;;;;;;;;4936665;29;20051;-70
2022/03/29 14:29:55;;;;;;;28.40;7.50;;;;;;;;;;4937566;29;20097;-75
2022/03/29 14:32:21;;;;;;;23.35;7.55;;;;;;;;;;4936597;29;20047;-69
2022/03/29 14:34:48;;;;;;;18.50;6.93;;;;;;;;;;4954649;29;20099;-71
2022/03/29 14:37:14;;;;;;;29.38;7.97;;;;;;;;;;4933981;29;20044;-68
2022/03/29 14:39:41;;;;;;;26.77;8.00;;;;;;;;;;4922914;29;20095;-74
2022/03/29 14:42:07;;;;;;;22.85;8.38;;;;;;;;;;4936024;29;20071;-75